| time (UTC) | temp F | wind direction | speed MPH | gust MPH | rain 1hr in | rain 24hr in | rain mn in | humidity % | barometer mb |
| 20260503053623 | 49 | 0 | 0.0 | 0.0 | 0.00 | 0.00 | 0.00 | 5 | |
| 20260503051622 | 0 | 0 | 0.0 | 0.0 | 0.00 | 0.00 | 0.00 | 100 | |
| 20260503045623 | 0 | 0 | 0.0 | 0.0 | 0.00 | 0.00 | 0.00 | 100 | |
| 20260503043622 | 0 | 0 | 0.0 | 0.0 | 0.00 | 0.00 | 0.00 | 100 | |
| 20260503041622 | 49 | 0 | 0.0 | 0.0 | 0.00 | 0.00 | 0.00 | 4 | |
| 20260503035622 | 49 | 0 | 0.0 | 0.0 | 0.00 | 0.00 | 0.00 | 4 | |
| 20260503033622 | 0 | 0 | 0.0 | 0.0 | 0.00 | 0.00 | 0.00 | 100 | |
| 20260503025623 | 0 | 0 | 0.0 | 0.0 | 0.00 | 0.00 | 0.00 | 100 | |
| 20260503023623 | 48 | 0 | 0.0 | 0.0 | 0.00 | 0.00 | 0.00 | 4 | |
| 20260503021622 | 48 | 0 | 0.0 | 0.0 | 0.00 | 0.00 | 0.00 | 4 | |
| 20260503015622 | 0 | 0 | 0.0 | 0.0 | 0.00 | 0.00 | 0.00 | 100 | |
| 20260503013622 | 0 | 0 | 0.0 | 0.0 | 0.00 | 0.00 | 0.00 | 100 | |
| 20260503011622 | 52 | 0 | 0.0 | 0.0 | 0.00 | 0.00 | 0.00 | 4 | |
| 20260503005623 | 54 | 0 | 0.0 | 0.0 | 0.00 | 0.00 | 0.00 | 3 | |
| 20260503003622 | 55 | 0 | 0.0 | 0.0 | 0.00 | 0.00 | 0.00 | 3 | |
| 20260503001622 | 0 | 0 | 3.0 | 0.0 | 0.00 | 0.00 | 0.00 | 100 | |
| 20260502235622 | 0 | 318 | 7.0 | 0.0 | 0.00 | 0.00 | 0.00 | 100 | |
| 20260502233622 | 0 | 302 | 7.0 | 0.0 | 0.00 | 0.00 | 0.00 | 100 | |
| 20260502231622 | 60 | 0 | 5.0 | 0.0 | 0.00 | 0.00 | 0.00 | 2 | |
| 20260502225622 | 0 | 0 | 3.0 | 0.0 | 0.00 | 0.00 | 0.00 | 100 | |
| 20260502223623 | 0 | 0 | 8.0 | 0.0 | 0.00 | 0.00 | 0.00 | 100 | |
| 20260502221622 | 0 | 315 | 5.0 | 0.0 | 0.00 | 0.00 | 0.00 | 100 | |
| 20260502215622 | 60 | 0 | 5.0 | 0.0 | 0.00 | 0.00 | 0.00 | 3 | |
| 20260502213622 | 60 | 0 | 3.0 | 0.0 | 0.00 | 0.00 | 0.00 | 3 | |
| 20260502211622 | 0 | 0 | 10.0 | 0.0 | 0.00 | 0.00 | 0.00 | 100 | |
| 20260502205623 | 0 | 0 | 5.0 | 0.0 | 0.00 | 0.00 | 0.00 | 100 | |
| 20260502203622 | 0 | 262 | 1.0 | 0.0 | 0.00 | 0.00 | 0.00 | 100 | |
| 20260502201622 | 60 | 0 | 5.0 | 0.0 | 0.00 | 0.00 | 0.00 | 2 | |
| 20260502195622 | 59 | 0 | 4.0 | 0.0 | 0.00 | 0.00 | 0.00 | 2 | |
| 20260502193622 | 0 | 0 | 6.0 | 0.0 | 0.00 | 0.00 | 0.00 | 100 | |
| 20260502185622 | 0 | 228 | 5.0 | 0.0 | 0.00 | 0.00 | 0.00 | 100 | |
| 20260502183622 | 60 | 0 | 0.0 | 0.0 | 0.00 | 0.00 | 0.00 | 3 | |
| 20260502163622 | 0 | 0 | 6.0 | 0.0 | 0.00 | 0.00 | 0.00 | 100 | |
| 20260502161622 | 0 | 0 | 4.0 | 0.0 | 0.00 | 0.00 | 0.00 | 100 | |
| 20260502151622 | 0 | 0 | 3.0 | 0.0 | 0.00 | 0.00 | 0.00 | 100 | |
| 20260502123622 | 0 | 0 | 0.0 | 0.0 | 0.00 | 0.00 | 0.00 | 100 | |
| 20260502121622 | 34 | 0 | 0.0 | 0.0 | 0.00 | 0.00 | 0.00 | 9 | |
| 20260502115703 | 30 | 0 | 0.0 | 0.0 | 0.00 | 0.00 | 0.00 | 9 | |
| 20260502115622 | 30 | 0 | 0.0 | 0.0 | 0.00 | 0.00 | 0.00 | 9 | |
| 20260502113622 | 0 | 0 | 0.0 | 0.0 | 0.00 | 0.00 | 0.00 | 100 | |
| 20260502111706 | 0 | 0 | 0.0 | 0.0 | 0.00 | 0.00 | 0.00 | 100 | |
| 20260502111622 | 0 | 0 | 0.0 | 0.0 | 0.00 | 0.00 | 0.00 | 100 | |
| 20260502105703 | 0 | 0 | 0.0 | 0.0 | 0.00 | 0.00 | 0.00 | 100 | |
| 20260502105623 | 0 | 0 | 0.0 | 0.0 | 0.00 | 0.00 | 0.00 | 100 | |
| 20260502103622 | 29 | 0 | 0.0 | 0.0 | 0.00 | 0.00 | 0.00 | 8 | |
| 20260502101622 | 0 | 0 | 0.0 | 0.0 | 0.00 | 0.00 | 0.00 | 100 | |
| 20260502065622 | 0 | 0 | 0.0 | 0.0 | 0.00 | 0.00 | 0.00 | 100 | |
| 20260502063622 | 0 | 0 | 0.0 | 0.0 | 0.00 | 0.00 | 0.00 | 100 |